aviador You're here:

OMDB Decoded Metar

DUBAI in UNITED ARAB EMIRATES
Report Time2017-07-27 22:00:00
UTC Time2017-07-27 22:54:20
Flight Rules vfr VFR
Wind040° at 04 kt
W.Decomp.*RWY 12: 0.6 kt HW 4 kt LCW
W.Rank040° ranks 25
Current wind is below 040° avg. (6.1)
Visibility8000 m
Phenomena:N/A
Clouds:N/A
Expected CloudBase > 4,400 ft AGL from Temp-Dew spread
CeilingNone
Temp37°C (ISA +22)
Dew Point26°C (53% RH)
Heat Index47.4°C
QNH0998 hPa
Density Alt3,448 ft
Elevation16 ft
Report Wrong Elevation
Raw Report
METAR OMDB 272200Z 04004KT 350V100 8000 NSC 37/26 Q0998 NOSIG=

Extra information for OMDB:More info

Metar Taf Metar & Taf Last 4 Metars F.Rules Stats Wind Profile Meteogram Temp Stats Airport Information Weather charts Add Link Nearby VenuesMetar ALERT Operation Metar Decoded Social comments